Time;durP1;ratioP1;P1;durP2;ratioP2;P2;SDS_P1;SDS_P2;PMS_P1;PMS_P2;Temp;Humidity;BMP_temperature;BMP_pressure;BME280_temperature;BME280_humidity;BME280_pressure;Samples;Min_cycle;Max_cycle;Signal;HPM_P1;HPM_P2
2023/10/06 00:00:39;;;;;;;;;;;14.20;78.50;;;13.40;71.24;96936.19;6117587;23;20340;-90
2023/10/06 00:03:10;;;;;;;;;;;14.20;78.30;;;13.39;71.06;96934.50;6117624;23;19928;-90
2023/10/06 00:05:39;;;;;;;;;;;14.20;78.20;;;13.39;71.31;96945.50;6117942;23;20237;-90
2023/10/06 00:08:10;;;;;;;;;;;14.20;78.40;;;13.40;71.25;96949.94;6117291;23;19920;-90
2023/10/06 00:10:44;;;;;;;;;;;14.20;78.50;;;13.38;70.96;96941.09;6142256;23;19927;-90
2023/10/06 00:13:18;;;;;;;;;;;14.20;77.90;;;13.35;70.61;96941.66;6117455;23;20328;-90
2023/10/06 00:15:49;;;;;;;;;;;14.20;77.90;;;13.32;70.52;96947.69;6142060;23;19920;-90
2023/10/06 00:18:19;;;;;;;;;;;14.10;77.70;;;13.29;70.79;96948.22;6140788;23;20284;-90
2023/10/06 00:20:49;;;;;;;;;;;14.10;77.90;;;13.27;70.65;96953.16;6117790;23;19920;-90
2023/10/06 00:23:22;;;;;;;;;;;14.10;77.80;;;13.25;70.83;96949.84;6167563;23;19927;-90
2023/10/06 00:25:52;;;;;;;;;;;14.10;78.00;;;13.25;70.95;96949.84;6117888;23;19925;-90
2023/10/06 00:28:22;;;;;;;;;;;14.10;78.10;;;13.23;70.89;96949.34;6141322;23;19925;-90
2023/10/06 00:30:55;;;;;;;;;;;14.00;77.80;;;13.22;70.69;96953.16;6117434;23;19924;-90
2023/10/06 00:33:27;;;;;;;;;;;14.00;77.80;;;13.18;70.84;96956.44;6116825;23;19920;-90
2023/10/06 00:35:56;;;;;;;;;;;14.00;77.90;;;13.16;70.78;96952.31;6117710;23;19927;-90
2023/10/06 00:38:30;;;;;;;;;;;14.00;77.80;;;13.15;70.83;96948.72;6165988;23;20251;-90
2023/10/06 00:41:06;;;;;;;;;;;14.00;77.90;;;13.16;70.97;96950.38;6141327;23;19921;-90
2023/10/06 00:43:36;;;;;;;;;;;14.00;78.00;;;13.15;70.63;96956.97;6142165;23;19935;-90
2023/10/06 00:46:06;;;;;;;;;;;14.00;77.70;;;13.11;70.58;96952.28;6141202;23;19920;-90
2023/10/06 00:48:39;;;;;;;;;;;13.90;77.40;;;13.07;70.39;96957.50;6117739;23;19927;-90
2023/10/06 00:51:12;;;;;;;;;;;13.90;77.30;;;13.05;70.50;96954.19;6117622;23;19920;-90
2023/10/06 00:53:42;;;;;;;;;;;13.90;77.60;;;13.01;70.21;96959.41;6117457;23;19924;-90
2023/10/06 00:56:14;;;;;;;;;;;13.90;77.40;;;12.99;70.38;96955.25;6140778;23;20368;-90
2023/10/06 00:58:43;;;;;;;;;;;13.80;77.40;;;13.00;70.56;96956.91;6118651;23;19920;-90
2023/10/06 01:01:13;;;;;;;;;;;13.80;77.80;;;13.00;70.45;96951.41;6141713;23;20366;-90
2023/10/06 01:03:44;;;;;;;;;;;13.80;77.40;;;12.95;70.15;96948.66;6117524;23;19921;-90
2023/10/06 01:06:14;;;;;;;;;;;13.80;77.30;;;12.95;70.66;96963.22;6117456;23;20382;-90
2023/10/06 01:08:52;;;;;;;;;;;13.80;77.60;;;12.93;70.16;96951.66;6117539;23;19920;-90
2023/10/06 01:11:26;;;;;;;;;;;13.80;77.30;;;12.94;70.33;96952.50;6117491;23;19931;-90
2023/10/06 01:13:56;;;;;;;;;;;13.80;77.30;;;12.93;69.99;96951.66;6140615;23;20229;-90
2023/10/06 01:16:34;;;;;;;;;;;13.70;77.20;;;12.92;70.11;96962.94;6142287;23;19921;-90
2023/10/06 01:19:14;;;;;;;;;;;13.70;77.20;;;12.87;70.03;96970.03;6142015;23;19920;-90
2023/10/06 01:21:49;;;;;;;;;;;13.70;77.20;;;12.86;70.09;96962.06;6141613;23;19920;-90
2023/10/06 01:24:23;;;;;;;;;;;13.70;77.20;;;12.85;69.93;96969.47;6117051;23;19931;-90
2023/10/06 01:26:53;;;;;;;;;;;13.70;77.20;;;12.82;70.11;96971.94;6117803;23;19943;-90
2023/10/06 01:29:26;;;;;;;;;;;13.70;77.10;;;12.80;69.85;96974.97;6165643;23;19924;-90
2023/10/06 01:31:54;;;;;;;;;;;13.60;77.00;;;12.80;70.06;96976.88;6117632;23;20332;-90
2023/10/06 01:34:24;;;;;;;;;;;13.60;77.20;;;12.82;70.08;96988.41;6117232;23;19928;-90
2023/10/06 01:36:53;;;;;;;;;;;13.60;77.20;;;12.77;69.78;96983.72;6093944;23;20256;-90
2023/10/06 01:39:25;;;;;;;;;;;13.60;76.80;;;12.76;69.71;96987.56;6117340;23;19921;-90
2023/10/06 01:41:54;;;;;;;;;;;13.60;76.70;;;12.73;69.81;96988.09;6116974;23;19921;-90
2023/10/06 01:44:23;;;;;;;;;;;13.60;76.80;;;12.71;69.90;96998.53;6093302;23;19920;-90
2023/10/06 01:46:54;;;;;;;;;;;13.60;77.00;;;12.72;69.76;96989.19;6141542;23;19924;-90
2023/10/06 01:49:22;;;;;;;;;;;13.60;76.90;;;12.73;69.93;96991.69;6118111;23;20360;-90
2023/10/06 01:51:51;;;;;;;;;;;13.60;76.80;;;12.71;69.88;96984.81;6142308;23;19924;-90
2023/10/06 01:54:27;;;;;;;;;;;13.60;76.70;;;12.67;69.50;96989.16;6118172;23;19920;-90
2023/10/06 01:56:57;;;;;;;;;;;13.50;76.40;;;12.67;69.84;96998.22;6142126;23;19921;-90
2023/10/06 01:59:26;;;;;;;;;;;13.50;76.60;;;12.66;69.93;96995.75;6118645;23;19920;-90
2023/10/06 02:02:00;;;;;;;;;;;13.50;76.80;;;12.67;69.82;97005.66;6142649;23;19921;-90
2023/10/06 02:04:38;;;;;;;;;;;13.50;76.90;;;12.67;69.64;97000.97;6166571;23;19920;-90
2023/10/06 02:07:09;;;;;;;;;;;13.50;76.80;;;12.66;69.60;97006.72;6118165;23;19927;-90
2023/10/06 02:09:38;;;;;;;;;;;13.50;76.70;;;12.65;69.71;97005.88;6142603;23;19921;-90
2023/10/06 02:12:09;;;;;;;;;;;13.50;76.70;;;12.64;69.61;97003.41;6118244;23;20272;-90
2023/10/06 02:14:37;;;;;;;;;;;13.50;76.60;;;12.60;69.62;96997.63;6141818;23;20336;-90
2023/10/06 02:17:08;;;;;;;;;;;13.50;76.60;;;12.58;69.58;97000.66;6142915;23;19922;-90
2023/10/06 02:19:37;;;;;;;;;;;13.40;76.50;;;12.58;69.56;96994.31;6118534;23;20332;-90
2023/10/06 02:22:06;;;;;;;;;;;13.40;76.40;;;12.57;69.68;96998.16;6141400;23;19921;-90
2023/10/06 02:24:34;;;;;;;;;;;13.40;76.50;;;12.57;69.65;97001.75;6166043;23;19920;-90
2023/10/06 02:27:04;;;;;;;;;;;13.40;76.60;;;12.55;69.49;97006.66;6118127;23;19931;-90
2023/10/06 02:29:34;;;;;;;;;;;13.40;76.40;;;12.52;69.44;97001.69;6117602;23;20264;-90
2023/10/06 02:32:08;;;;;;;;;;;13.40;76.40;;;12.50;69.48;97006.63;6141727;23;19924;-90
2023/10/06 02:34:38;;;;;;;;;;;13.30;76.40;;;12.48;69.54;97000.56;6094378;23;20355;-90
2023/10/06 02:37:07;;;;;;;;;;;13.30;76.30;;;12.45;69.32;97001.09;6118262;23;20370;-90
2023/10/06 02:39:38;;;;;;;;;;;13.30;76.40;;;12.42;69.23;97002.44;6118471;23;19921;-90
2023/10/06 02:42:09;;;;;;;;;;;13.30;76.10;;;12.39;69.26;96999.38;6142658;23;19943;-90
2023/10/06 02:44:40;;;;;;;;;;;13.20;76.10;;;12.37;69.31;97004.31;6094980;23;20336;-90
2023/10/06 02:47:09;;;;;;;;;;;13.20;76.10;;;12.34;69.52;96999.34;6142832;23;20336;-90
2023/10/06 02:49:40;;;;;;;;;;;13.20;76.30;;;12.34;69.36;96993.84;6117911;23;20363;-90
2023/10/06 02:52:15;;;;;;;;;;;13.20;76.30;;;12.33;69.35;96997.72;6118541;23;19920;-90
2023/10/06 02:54:49;;;;;;;;;;;13.20;76.30;;;12.31;69.12;96989.72;6117599;23;19920;-90
2023/10/06 02:57:20;;;;;;;;;;;13.20;76.20;;;12.27;69.20;96992.16;6142453;23;19928;-90
2023/10/06 02:59:56;;;;;;;;;;;13.20;76.10;;;12.25;69.42;97004.50;6117836;23;19920;-90
2023/10/06 03:02:26;;;;;;;;;;;13.10;76.10;;;12.22;69.41;97003.09;6118383;23;19927;-90
2023/10/06 03:05:10;;;;;;;;;;;13.10;76.10;;;12.22;69.19;97008.59;6118052;23;19920;-90
2023/10/06 03:07:39;;;;;;;;;;;13.10;76.10;;;12.24;68.73;97011.09;6142532;23;19928;-90
2023/10/06 03:10:08;;;;;;;;;;;13.10;75.80;;;12.20;68.56;97016.25;6142645;23;19921;-90
2023/10/06 03:12:39;;;;;;;;;;;13.10;75.70;;;12.18;68.74;97018.44;6142503;23;19921;-90
2023/10/06 03:15:28;;;;;;;;;;;13.00;75.70;;;12.17;68.79;97021.44;6094415;23;19921;-90
2023/10/06 03:17:58;;;;;;;;;;;13.00;75.70;;;12.16;69.32;97019.78;6117836;23;19927;-90
2023/10/06 03:20:34;;;;;;;;;;;13.00;76.00;;;12.16;69.11;97023.38;6118419;23;19920;-90
2023/10/06 03:23:13;;;;;;;;;;;13.00;76.30;;;12.19;68.98;97027.50;6118052;23;20344;-90
2023/10/06 03:25:42;;;;;;;;;;;13.00;76.00;;;12.18;69.09;97023.94;6117874;23;19920;-90
2023/10/06 03:28:12;;;;;;;;;;;13.00;76.00;;;12.18;69.15;97018.44;6118059;23;19928;-90
2023/10/06 03:30:44;;;;;;;;;;;13.10;76.10;;;12.19;68.91;97022.84;6117825;23;19925;-90
2023/10/06 03:33:13;;;;;;;;;;;13.10;76.00;;;12.20;68.74;97010.75;6117932;23;19920;-90
2023/10/06 03:35:47;;;;;;;;;;;13.10;75.70;;;12.21;69.11;97009.66;6118140;23;19921;-90
2023/10/06 03:38:36;;;;;;;;;;;13.10;76.10;;;12.19;68.82;97009.13;6117748;23;19920;-90
2023/10/06 03:41:18;;;;;;;;;;;13.10;75.60;;;12.18;68.32;97012.97;6142309;23;19927;-90
2023/10/06 03:43:51;;;;;;;;;;;13.10;75.20;;;12.10;68.02;97008.78;6096233;23;19921;-90
2023/10/06 03:46:24;;;;;;;;;;;13.00;74.70;;;12.06;68.36;97009.56;6118142;23;19927;-90
2023/10/06 03:48:53;;;;;;;;;;;12.90;75.10;;;12.02;68.43;97011.16;6117973;23;19920;-90
2023/10/06 03:51:22;;;;;;;;;;;12.90;75.10;;;12.00;68.63;97011.44;6141504;23;19920;-90
2023/10/06 03:53:50;;;;;;;;;;;12.90;75.40;;;12.00;68.80;97005.94;6117453;23;19935;-90
2023/10/06 03:56:19;;;;;;;;;;;12.90;75.90;;;12.04;69.08;97006.25;6094029;23;19920;-90
2023/10/06 03:58:48;;;;;;;;;;;12.90;76.00;;;12.10;69.18;97005.19;6118058;23;19920;-90
2023/10/06 04:01:25;;;;;;;;;;;12.90;76.00;;;12.11;68.61;97015.06;6141570;23;19932;-89
2023/10/06 04:03:58;;;;;;;;;;;13.00;75.50;;;12.10;68.45;97005.19;6117465;23;19924;-90
2023/10/06 04:06:26;;;;;;;;;;;13.00;75.60;;;12.08;68.33;97007.34;6165183;23;20340;-90
2023/10/06 04:08:57;;;;;;;;;;;12.90;75.00;;;12.05;68.21;97007.91;6117184;23;20348;-90
2023/10/06 04:11:29;;;;;;;;;;;13.00;75.10;;;12.05;68.52;97005.97;6118300;23;19921;-90
2023/10/06 04:13:58;;;;;;;;;;;13.00;75.30;;;12.05;68.03;97008.72;6117563;23;19920;-90
2023/10/06 04:16:26;;;;;;;;;;;12.90;75.10;;;12.02;68.37;97009.22;6117735;23;20344;-90
2023/10/06 04:18:56;;;;;;;;;;;12.90;75.00;;;12.01;67.64;97020.47;6141935;23;19925;-90
2023/10/06 04:21:24;;;;;;;;;;;12.90;74.80;;;11.99;68.01;97017.16;6167627;23;19932;-90
2023/10/06 04:23:53;;;;;;;;;;;12.90;75.00;;;11.97;68.20;97018.22;6166383;23;20229;-90
2023/10/06 04:26:22;;;;;;;;;;;12.90;75.20;;;11.96;68.25;97015.72;6141871;23;19920;-90
2023/10/06 04:28:51;;;;;;;;;;;12.80;75.00;;;11.94;68.40;97021.47;6142012;23;19920;-90
2023/10/06 04:31:19;;;;;;;;;;;12.80;74.90;;;11.94;68.04;97026.13;6141199;23;19920;-90
2023/10/06 04:33:47;;;;;;;;;;;12.80;74.70;;;11.90;67.56;97025.00;6141612;23;19920;-90
2023/10/06 04:36:20;;;;;;;;;;;12.70;74.50;;;11.88;67.82;97030.75;6117581;23;19920;-90
2023/10/06 04:38:48;;;;;;;;;;;12.80;74.60;;;11.85;68.05;97030.44;6142094;23;20340;-90
2023/10/06 04:41:20;;;;;;;;;;;12.70;74.80;;;11.83;68.42;97025.19;6117431;23;19931;-90
2023/10/06 04:43:48;;;;;;;;;;;12.70;75.20;;;11.86;68.79;97023.88;6141703;23;19927;-90
2023/10/06 04:46:16;;;;;;;;;;;12.80;75.60;;;11.90;68.13;97023.09;6118249;23;19925;-90
2023/10/06 04:48:47;;;;;;;;;;;12.80;75.30;;;12.04;67.91;97028.19;6141401;23;19924;-90
2023/10/06 04:51:17;;;;;;;;;;;12.90;75.00;;;12.24;67.50;97016.56;6117470;23;19926;-90
2023/10/06 04:53:47;;;;;;;;;;;13.20;74.20;;;12.51;66.66;97027.50;6117285;23;19921;-90
2023/10/06 04:56:16;;;;;;;;;;;13.40;73.40;;;12.81;65.78;97026.06;6142266;23;20332;-90
2023/10/06 04:58:44;;;;;;;;;;;13.70;72.80;;;13.05;65.10;97036.66;6167244;23;19924;-90
2023/10/06 05:01:13;;;;;;;;;;;13.90;71.50;;;13.23;64.17;97037.31;6141726;23;19928;-89
2023/10/06 05:03:45;;;;;;;;;;;14.10;70.70;;;13.35;63.82;97026.94;6142012;23;19928;-90
2023/10/06 05:06:15;;;;;;;;;;;14.10;70.30;;;13.43;63.29;97034.69;6142076;23;19920;-90
2023/10/06 05:08:46;;;;;;;;;;;14.20;69.70;;;13.44;63.40;97038.25;6117631;23;19921;-90
2023/10/06 05:11:15;;;;;;;;;;;14.30;69.60;;;13.42;63.28;97038.53;6117285;23;19920;-90
2023/10/06 05:13:44;;;;;;;;;;;14.30;69.60;;;13.41;63.64;97036.88;6117636;23;19920;-90
2023/10/06 05:16:12;;;;;;;;;;;14.20;69.80;;;13.44;63.71;97050.09;6117556;23;19920;-90
2023/10/06 05:18:40;;;;;;;;;;;14.30;70.20;;;13.44;63.44;97044.59;6117583;23;19920;-90
2023/10/06 05:21:09;;;;;;;;;;;14.20;69.80;;;13.45;63.78;97043.50;6117692;23;19920;-90
2023/10/06 05:23:41;;;;;;;;;;;14.20;70.20;;;13.51;63.94;97055.34;6117193;23;19921;-90
2023/10/06 05:26:13;;;;;;;;;;;14.30;70.50;;;13.59;63.68;97051.25;6094161;23;19928;-90
2023/10/06 05:28:42;;;;;;;;;;;14.40;70.30;;;13.70;63.29;97052.09;6117433;23;19927;-90
2023/10/06 05:31:11;;;;;;;;;;;14.50;69.60;;;13.85;63.03;97048.59;6135788;23;19927;-90
2023/10/06 05:33:40;;;;;;;;;;;14.70;69.90;;;14.01;62.82;97049.44;6117313;23;20248;-90
2023/10/06 05:36:12;;;;;;;;;;;14.90;68.50;;;14.22;62.29;97055.81;6116957;23;20229;-90
2023/10/06 05:38:41;;;;;;;;;;;15.10;67.90;;;14.38;62.06;97063.00;6117639;23;20283;-90
2023/10/06 05:41:12;;;;;;;;;;;15.20;67.60;;;14.45;61.68;97061.91;6116555;23;19928;-90
2023/10/06 05:43:41;;;;;;;;;;;15.20;67.50;;;14.48;62.31;97066.88;6141528;23;19928;-90
2023/10/06 05:46:11;;;;;;;;;;;15.20;68.20;;;14.43;62.87;97065.75;6165432;23;20342;-90
2023/10/06 05:48:39;;;;;;;;;;;15.20;68.90;;;14.41;63.06;97076.22;6141861;23;19920;-90
2023/10/06 05:51:09;;;;;;;;;;;15.20;69.30;;;14.37;63.62;97072.38;6141473;23;19936;-90
2023/10/06 05:53:41;;;;;;;;;;;15.20;69.80;;;14.33;63.63;97070.44;6141174;23;20423;-90
2023/10/06 05:56:11;;;;;;;;;;;15.10;69.80;;;14.28;64.34;97079.50;6141314;23;19920;-90
2023/10/06 05:58:40;;;;;;;;;;;15.10;70.60;;;14.23;64.61;97076.75;6140693;23;19920;-90
2023/10/06 06:01:10;;;;;;;;;;;15.00;71.20;;;14.19;64.94;97076.47;6141257;23;19920;-90
2023/10/06 06:03:44;;;;;;;;;;;15.00;71.50;;;14.15;65.10;97077.28;6116838;23;19927;-90
2023/10/06 06:06:14;;;;;;;;;;;14.90;71.70;;;14.14;65.45;97081.13;6141651;23;19920;-90
2023/10/06 06:08:47;;;;;;;;;;;14.90;72.20;;;14.15;65.65;97082.78;6141565;23;19920;-90
2023/10/06 06:11:17;;;;;;;;;;;14.90;72.30;;;14.17;66.08;97083.34;6093685;23;19931;-90
2023/10/06 06:13:45;;;;;;;;;;;15.00;72.80;;;14.19;66.29;97087.50;6141297;23;19924;-90
2023/10/06 06:16:15;;;;;;;;;;;14.90;73.00;;;14.22;66.13;97084.16;6117100;23;19927;-90
2023/10/06 06:18:46;;;;;;;;;;;15.00;73.00;;;14.25;66.35;97085.56;6134984;23;22855;-90
2023/10/06 06:21:16;;;;;;;;;;;15.00;72.90;;;14.28;66.50;97087.75;6112062;23;19927;-90
2023/10/06 06:23:46;;;;;;;;;;;15.00;73.20;;;14.34;66.66;97083.94;6064841;23;20249;-90
2023/10/06 06:26:17;;;;;;;;;;;15.10;73.60;;;14.39;66.92;97089.44;6088015;23;19921;-90
2023/10/06 06:28:45;;;;;;;;;;;15.10;73.70;;;14.41;66.85;97084.47;6111992;23;19924;-90
2023/10/06 06:31:20;;;;;;;;;;;15.20;73.60;;;14.44;66.69;97080.38;6136230;23;19928;-90
2023/10/06 06:33:56;;;;;;;;;;;15.20;73.40;;;14.47;66.70;97087.25;6135834;23;19928;-90
2023/10/06 06:36:24;;;;;;;;;;;15.30;73.60;;;14.48;66.87;97086.16;6088897;23;19927;-90
2023/10/06 06:38:53;;;;;;;;;;;15.30;73.70;;;14.48;67.12;97083.41;6089021;23;19920;-90
2023/10/06 06:41:25;;;;;;;;;;;15.20;73.70;;;14.49;67.16;97093.31;6088747;23;19920;-90
2023/10/06 06:43:59;;;;;;;;;;;15.20;73.70;;;14.52;67.86;97090.03;6113366;23;19927;-90
2023/10/06 06:46:29;;;;;;;;;;;15.30;74.50;;;14.53;67.75;97083.38;6088781;23;19921;-91
2023/10/06 06:49:01;;;;;;;;;;;15.30;74.70;;;14.56;68.23;97091.09;6089377;23;20355;-90
2023/10/06 06:51:30;;;;;;;;;;;15.30;75.10;;;14.60;68.15;97086.72;6113302;23;19920;-90
2023/10/06 06:53:59;;;;;;;;;;;15.40;75.20;;;14.67;68.31;97087.28;6088858;23;19921;-90
2023/10/06 06:56:48;;;;;;;;;;;15.40;75.10;;;14.73;67.17;97085.34;6112805;23;20341;-90
2023/10/06 06:59:37;;;;;;;;;;;15.50;74.20;;;14.82;66.68;97082.88;6113232;23;20341;-90
2023/10/06 07:02:17;;;;;;;;;;;15.50;73.80;;;14.88;66.40;97092.81;6113144;23;20333;-90
2023/10/06 07:05:20;;;;;;;;;;;15.60;73.50;;;14.96;66.29;97088.66;6131903;23;20332;-90
2023/10/06 07:08:09;;;;;;;;;;;15.70;73.30;;;15.02;66.09;97087.53;6137052;23;19921;-91
